Time;durP1;ratioP1;P1;durP2;ratioP2;P2;SDS_P1;SDS_P2;PMS_P1;PMS_P2;Temp;Humidity;BMP_temperature;BMP_pressure;BME280_temperature;BME280_humidity;BME280_pressure;Samples;Min_cycle;Max_cycle;Signal;HPM_P1;HPM_P2
2021/10/20 00:01:45;;;;;;;18.30;11.05;;;16.00;99.90;;;;;;5085154;28;20047;-81
2021/10/20 00:04:11;;;;;;;19.55;10.05;;;15.90;99.90;;;;;;5091792;28;20046;-81
2021/10/20 00:06:37;;;;;;;16.52;10.00;;;15.90;99.90;;;;;;5072460;28;20043;-81
2021/10/20 00:09:03;;;;;;;16.88;10.05;;;15.90;99.90;;;;;;5093158;28;20043;-81
2021/10/20 00:11:29;;;;;;;13.40;10.10;;;15.80;99.90;;;;;;5107601;28;20062;-81
2021/10/20 00:13:55;;;;;;;21.85;9.73;;;15.80;99.90;;;;;;5105383;28;20421;-81
2021/10/20 00:16:21;;;;;;;15.02;10.10;;;15.80;99.90;;;;;;5074132;28;20036;-81
2021/10/20 00:18:48;;;;;;;17.70;10.45;;;15.70;99.90;;;;;;5071724;28;20040;-81
2021/10/20 00:21:19;;;;;;;15.52;10.40;;;15.70;99.90;;;;;;5090648;28;20148;-81
2021/10/20 00:23:46;;;;;;;18.65;10.05;;;15.70;99.90;;;;;;5106932;28;20568;-81
2021/10/20 00:26:12;;;;;;;21.17;10.55;;;15.60;99.90;;;;;;5072577;28;20130;-81
2021/10/20 00:28:38;;;;;;;28.08;10.40;;;15.60;99.90;;;;;;5074642;28;20085;-81
2021/10/20 00:31:03;;;;;;;20.10;10.70;;;15.60;99.90;;;;;;5071461;28;20071;-81
2021/10/20 00:33:29;;;;;;;18.85;9.68;;;15.60;99.90;;;;;;5073650;28;20039;-81
2021/10/20 00:35:55;;;;;;;15.57;9.85;;;15.50;99.90;;;;;;5094395;28;20509;-81
2021/10/20 00:38:20;;;;;;;14.55;9.95;;;15.50;99.90;;;;;;5087143;28;20513;-83
2021/10/20 00:40:46;;;;;;;23.33;10.88;;;15.50;99.90;;;;;;5088944;28;20496;-83
2021/10/20 00:43:12;;;;;;;13.93;9.82;;;15.50;99.90;;;;;;5071946;28;20036;-82
2021/10/20 00:45:37;;;;;;;21.05;9.38;;;15.50;99.90;;;;;;5089810;28;20050;-82
2021/10/20 00:48:04;;;;;;;16.85;9.52;;;15.50;99.90;;;;;;5071432;28;20035;-82
2021/10/20 00:50:29;;;;;;;21.05;8.90;;;15.50;99.90;;;;;;5089627;28;20494;-82
2021/10/20 00:52:55;;;;;;;15.60;9.35;;;15.40;99.90;;;;;;5077475;28;20086;-82
2021/10/20 00:55:21;;;;;;;18.23;11.13;;;15.40;99.90;;;;;;5084726;28;20401;-82
2021/10/20 00:57:48;;;;;;;16.48;9.38;;;15.40;99.90;;;;;;5072279;28;20111;-81
2021/10/20 01:00:16;;;;;;;24.77;10.40;;;15.40;99.90;;;;;;5090119;28;20048;-81
2021/10/20 01:02:42;;;;;;;13.80;9.45;;;15.30;99.90;;;;;;5089713;28;20044;-81
2021/10/20 01:05:09;;;;;;;14.88;9.98;;;15.30;99.90;;;;;;5071318;28;20035;-81
2021/10/20 01:07:36;;;;;;;20.00;9.88;;;15.30;99.90;;;;;;5073265;28;20423;-81
2021/10/20 01:10:06;;;;;;;14.40;9.43;;;15.30;99.90;;;;;;5070984;28;20043;-81
2021/10/20 01:12:34;;;;;;;14.68;9.40;;;15.30;99.90;;;;;;5106174;28;20185;-82
2021/10/20 01:15:00;;;;;;;22.80;9.50;;;15.30;99.90;;;;;;5087366;28;20039;-82
2021/10/20 01:17:27;;;;;;;20.33;9.45;;;15.20;99.90;;;;;;5089225;28;20059;-81
2021/10/20 01:19:55;;;;;;;16.85;9.65;;;15.20;99.90;;;;;;5071090;28;20058;-81
2021/10/20 01:22:21;;;;;;;14.90;8.95;;;15.20;99.90;;;;;;5088211;28;20486;-82
2021/10/20 01:24:47;;;;;;;18.35;9.15;;;15.20;99.90;;;;;;5089656;28;20047;-81
2021/10/20 01:27:13;;;;;;;14.95;8.82;;;15.20;99.90;;;;;;5087208;28;20465;-81
2021/10/20 01:29:38;;;;;;;14.35;8.68;;;15.30;99.90;;;;;;5089448;28;20089;-82
2021/10/20 01:32:05;;;;;;;14.68;8.65;;;15.20;99.90;;;;;;5087735;28;20039;-82
2021/10/20 01:34:32;;;;;;;11.52;8.63;;;15.30;99.90;;;;;;5072584;28;20044;-81
2021/10/20 01:37:02;;;;;;;16.45;8.88;;;15.30;99.90;;;;;;5087481;28;20100;-81
2021/10/20 01:39:28;;;;;;;11.57;8.52;;;15.30;99.90;;;;;;5088479;28;20070;-82
2021/10/20 01:41:54;;;;;;;17.70;9.32;;;15.30;99.90;;;;;;5105696;28;20039;-82
2021/10/20 01:44:19;;;;;;;17.75;8.57;;;15.20;99.90;;;;;;5070811;28;20126;-81
2021/10/20 01:46:45;;;;;;;10.93;7.78;;;15.30;99.90;;;;;;5088805;28;20118;-81
2021/10/20 01:49:12;;;;;;;9.48;7.40;;;15.30;99.90;;;;;;5069860;28;20073;-81
2021/10/20 01:51:38;;;;;;;12.73;7.10;;;15.30;99.90;;;;;;5105568;28;20075;-82
2021/10/20 01:54:05;;;;;;;15.85;8.23;;;15.30;99.90;;;;;;5104418;28;20071;-81
2021/10/20 01:56:31;;;;;;;12.70;8.20;;;15.40;99.90;;;;;;5088892;28;20043;-81
2021/10/20 01:58:57;;;;;;;12.65;8.27;;;15.30;99.90;;;;;;5088334;28;20504;-81
2021/10/20 02:01:23;;;;;;;10.88;7.57;;;15.40;99.90;;;;;;5087365;28;20063;-81
2021/10/20 02:03:48;;;;;;;11.40;6.85;;;15.40;99.90;;;;;;5072066;28;20367;-81
2021/10/20 02:06:16;;;;;;;12.73;8.73;;;15.40;99.90;;;;;;5086703;28;20035;-81
2021/10/20 02:08:43;;;;;;;21.08;7.72;;;15.40;99.90;;;;;;5088801;28;20435;-82
2021/10/20 02:11:09;;;;;;;11.50;6.88;;;15.40;99.90;;;;;;5072809;28;20473;-82
2021/10/20 02:13:34;;;;;;;11.32;6.88;;;15.50;99.90;;;;;;5105901;28;20429;-82
2021/10/20 02:16:03;;;;;;;10.57;6.82;;;15.50;99.90;;;;;;5104744;28;20039;-81
2021/10/20 02:18:29;;;;;;;22.48;7.57;;;15.50;99.90;;;;;;5104574;28;20089;-81
2021/10/20 02:20:55;;;;;;;13.43;7.43;;;15.40;99.90;;;;;;5088526;28;20040;-81
2021/10/20 02:23:21;;;;;;;9.82;6.50;;;15.50;99.90;;;;;;5069983;28;20046;-81
2021/10/20 02:25:47;;;;;;;10.32;6.80;;;15.50;99.90;;;;;;5088633;28;20441;-81
2021/10/20 02:28:12;;;;;;;10.85;6.90;;;15.50;99.90;;;;;;5086374;28;20044;-81
2021/10/20 02:30:38;;;;;;;10.57;7.03;;;15.50;99.90;;;;;;5091623;28;20492;-81
2021/10/20 02:33:05;;;;;;;12.07;6.72;;;15.50;99.90;;;;;;5091159;28;20087;-81
2021/10/20 02:35:30;;;;;;;7.28;6.32;;;15.50;99.90;;;;;;5109184;28;20511;-81
2021/10/20 02:37:56;;;;;;;23.55;7.07;;;15.60;99.90;;;;;;5107327;28;20048;-82
2021/10/20 02:40:22;;;;;;;9.50;6.57;;;15.60;99.90;;;;;;5095540;28;20464;-82
2021/10/20 02:42:48;;;;;;;14.57;7.32;;;15.60;99.90;;;;;;5092445;28;20040;-82
2021/10/20 02:45:16;;;;;;;16.92;6.53;;;15.60;99.90;;;;;;5107462;28;20803;-82
2021/10/20 02:47:42;;;;;;;9.48;5.78;;;15.60;99.90;;;;;;5092655;28;20084;-82
2021/10/20 02:50:09;;;;;;;12.32;6.75;;;15.50;99.90;;;;;;5073716;28;20047;-81
2021/10/20 02:52:35;;;;;;;10.25;6.85;;;15.50;99.90;;;;;;5108737;28;20832;-81
2021/10/20 02:55:02;;;;;;;11.82;6.57;;;15.50;99.90;;;;;;5092111;28;20096;-81
2021/10/20 02:57:28;;;;;;;12.85;6.82;;;15.40;99.90;;;;;;5074081;28;20541;-81
2021/10/20 02:59:54;;;;;;;8.88;6.30;;;15.40;99.90;;;;;;5075606;28;20169;-81
2021/10/20 03:02:20;;;;;;;8.82;5.88;;;15.40;99.90;;;;;;5106774;28;20159;-81
2021/10/20 03:04:46;;;;;;;9.60;6.22;;;15.30;99.90;;;;;;5092338;28;20135;-81
2021/10/20 03:07:12;;;;;;;8.25;6.38;;;15.30;99.90;;;;;;5090495;27;20118;-81
2021/10/20 03:09:38;;;;;;;12.82;6.90;;;15.30;99.90;;;;;;5085045;28;20131;-81
2021/10/20 03:12:03;;;;;;;30.95;7.00;;;15.30;99.90;;;;;;5083623;28;20425;-81
2021/10/20 03:14:29;;;;;;;9.55;6.45;;;15.30;99.90;;;;;;5074172;28;20082;-81
2021/10/20 03:16:55;;;;;;;10.02;7.22;;;15.20;99.90;;;;;;5075618;28;20130;-81
2021/10/20 03:19:21;;;;;;;11.55;7.10;;;15.20;99.90;;;;;;5103758;28;20046;-82
2021/10/20 03:21:46;;;;;;;12.65;6.63;;;15.10;99.90;;;;;;5075523;28;20485;-82
2021/10/20 03:24:12;;;;;;;14.80;6.85;;;15.00;99.90;;;;;;5089724;28;20393;-81
2021/10/20 03:26:38;;;;;;;16.48;6.68;;;15.10;99.90;;;;;;5092084;28;20173;-81
2021/10/20 03:29:04;;;;;;;10.70;6.85;;;15.00;99.90;;;;;;5090514;28;20082;-81
2021/10/20 03:31:30;;;;;;;21.08;6.78;;;14.90;99.90;;;;;;5091222;28;20047;-81
2021/10/20 03:33:56;;;;;;;10.10;6.43;;;14.80;99.90;;;;;;5091400;28;20047;-80
2021/10/20 03:36:22;;;;;;;10.02;6.18;;;14.80;99.90;;;;;;5090054;28;20036;-80
2021/10/20 03:38:47;;;;;;;15.70;6.85;;;14.80;99.90;;;;;;5091672;28;20436;-80
2021/10/20 03:41:13;;;;;;;21.83;7.20;;;14.70;99.90;;;;;;5088650;28;20040;-80
2021/10/20 03:43:39;;;;;;;16.20;6.80;;;14.70;99.90;;;;;;5091152;28;20669;-80
2021/10/20 03:46:06;;;;;;;20.73;7.50;;;14.70;99.90;;;;;;5090197;28;20047;-80
2021/10/20 03:48:32;;;;;;;14.27;7.70;;;14.70;99.90;;;;;;5074433;28;20035;-80
2021/10/20 03:50:58;;;;;;;12.10;6.97;;;14.60;99.90;;;;;;5091393;28;20382;-80
2021/10/20 03:53:23;;;;;;;11.82;7.15;;;14.60;99.90;;;;;;5089564;28;20549;-80
2021/10/20 03:55:49;;;;;;;13.55;7.78;;;14.50;99.90;;;;;;5091568;28;20478;-80
2021/10/20 03:58:15;;;;;;;9.15;6.68;;;14.50;99.90;;;;;;5061389;28;20072;-80
2021/10/20 04:00:40;;;;;;;10.80;7.70;;;14.50;99.90;;;;;;5091396;28;20126;-80
2021/10/20 04:03:06;;;;;;;17.05;7.50;;;14.40;99.90;;;;;;5106528;28;20035;-80
2021/10/20 04:05:32;;;;;;;16.27;7.40;;;14.50;99.90;;;;;;5082921;28;20425;-81
2021/10/20 04:07:58;;;;;;;11.05;7.78;;;14.50;99.90;;;;;;5106920;28;20117;-81
2021/10/20 04:10:26;;;;;;;15.82;7.95;;;14.50;99.90;;;;;;5093310;28;20055;-80
2021/10/20 04:12:53;;;;;;;14.80;8.07;;;14.50;99.90;;;;;;5090153;28;20047;-80
2021/10/20 04:15:23;;;;;;;12.60;7.03;;;14.50;99.90;;;;;;5106257;28;20443;-80
2021/10/20 04:17:48;;;;;;;;;;;14.50;99.90;;;;;;5108433;28;20035;-80
2021/10/20 04:20:17;;;;;;;14.23;7.50;;;14.50;99.90;;;;;;5088421;28;19920;-80
2021/10/20 04:22:44;;;;;;;11.10;8.48;;;14.50;99.90;;;;;;5076269;28;20044;-80
2021/10/20 04:25:10;;;;;;;22.33;8.07;;;14.50;99.90;;;;;;5106789;28;20406;-81
2021/10/20 04:27:37;;;;;;;11.68;7.65;;;14.60;99.90;;;;;;5090349;28;20043;-82
2021/10/20 04:30:05;;;;;;;10.05;7.82;;;14.50;99.90;;;;;;5090177;28;20042;-81
2021/10/20 04:32:31;;;;;;;18.90;8.07;;;14.50;99.90;;;;;;5105526;28;20051;-81
2021/10/20 04:34:57;;;;;;;17.20;8.13;;;14.50;99.90;;;;;;5107345;28;20028;-81
2021/10/20 04:37:25;;;;;;;14.55;8.13;;;14.50;99.90;;;;;;5105218;28;20445;-81
2021/10/20 04:39:58;;;;;;;15.20;8.52;;;14.50;99.90;;;;;;5107389;28;20086;-81
2021/10/20 04:42:28;;;;;;;13.18;8.73;;;14.60;99.90;;;;;;5088417;28;20040;-82
2021/10/20 04:44:54;;;;;;;;;;;14.60;99.90;;;;;;5090177;28;20113;-82
2021/10/20 04:47:20;;;;;;;12.95;8.45;;;14.60;99.90;;;;;;5089695;28;19925;-82
2021/10/20 04:49:46;;;;;;;14.02;8.00;;;14.60;99.90;;;;;;5088960;28;20481;-82
2021/10/20 04:52:12;;;;;;;18.30;8.52;;;14.60;99.90;;;;;;5073158;28;20482;-82
2021/10/20 04:54:38;;;;;;;11.15;8.70;;;14.60;99.90;;;;;;5088140;28;20103;-82
2021/10/20 04:57:04;;;;;;;13.82;8.73;;;14.60;99.90;;;;;;5073163;28;20114;-82
2021/10/20 04:59:31;;;;;;;19.20;8.38;;;14.70;99.90;;;;;;5104201;28;20039;-82
2021/10/20 05:01:58;;;;;;;12.40;8.20;;;14.70;99.90;;;;;;5107361;28;20043;-82
2021/10/20 05:04:24;;;;;;;13.35;8.40;;;14.70;99.90;;;;;;5088727;28;20075;-82
2021/10/20 05:06:50;;;;;;;12.73;8.73;;;14.70;99.90;;;;;;5089149;28;20519;-81
2021/10/20 05:09:16;;;;;;;14.70;8.75;;;14.70;99.90;;;;;;5085466;28;20072;-82
2021/10/20 05:11:42;;;;;;;12.93;7.93;;;14.80;99.90;;;;;;5094250;28;20138;-81
2021/10/20 05:14:07;;;;;;;17.63;9.25;;;14.80;99.90;;;;;;5106774;28;20111;-82
2021/10/20 05:16:33;;;;;;;14.50;7.95;;;14.80;99.90;;;;;;5072054;28;20375;-81
2021/10/20 05:18:59;;;;;;;14.05;8.35;;;14.80;99.90;;;;;;5103731;28;20147;-82
2021/10/20 05:21:25;;;;;;;13.60;8.43;;;14.80;99.90;;;;;;5056219;28;20044;-81
2021/10/20 05:23:51;;;;;;;18.40;9.00;;;14.90;99.90;;;;;;5064649;28;20040;-82
2021/10/20 05:26:20;;;;;;;14.55;8.68;;;14.90;99.90;;;;;;5083894;28;20047;-82
2021/10/20 05:28:46;;;;;;;18.98;8.77;;;14.80;99.90;;;;;;5095543;28;20191;-82
2021/10/20 05:31:12;;;;;;;14.90;8.98;;;14.80;99.90;;;;;;5089232;28;20047;-82
2021/10/20 05:33:38;;;;;;;19.13;8.70;;;14.90;99.90;;;;;;5086986;28;20279;-81
2021/10/20 05:36:05;;;;;;;15.25;8.77;;;14.80;99.90;;;;;;5088999;28;20084;-81
2021/10/20 05:38:31;;;;;;;24.13;9.68;;;14.80;99.90;;;;;;5070400;28;20032;-81
2021/10/20 05:40:56;;;;;;;13.65;9.13;;;14.80;99.90;;;;;;5089079;28;20054;-81
2021/10/20 05:43:23;;;;;;;15.32;9.90;;;14.80;99.90;;;;;;5066181;28;20032;-82
2021/10/20 05:45:49;;;;;;;15.88;9.43;;;14.80;99.90;;;;;;5079314;28;20055;-81
2021/10/20 05:48:15;;;;;;;21.02;9.93;;;14.80;99.90;;;;;;5105862;28;20798;-81
2021/10/20 05:50:42;;;;;;;17.40;9.90;;;14.80;99.90;;;;;;5110726;27;20036;-82
2021/10/20 05:53:08;;;;;;;21.42;9.77;;;14.80;99.90;;;;;;5089107;28;20092;-81
2021/10/20 05:55:34;;;;;;;16.33;10.18;;;14.80;99.90;;;;;;5086427;28;20044;-82
2021/10/20 05:58:00;;;;;;;16.25;10.77;;;14.90;99.90;;;;;;5089204;28;20050;-80
2021/10/20 06:00:26;;;;;;;14.00;9.43;;;14.90;99.90;;;;;;5087407;28;20036;-80
2021/10/20 06:02:51;;;;;;;17.80;10.13;;;15.00;99.90;;;;;;5105218;28;20048;-81
2021/10/20 06:05:17;;;;;;;15.93;10.15;;;14.90;99.90;;;;;;5087684;28;20397;-81
2021/10/20 06:07:45;;;;;;;19.40;10.43;;;15.00;99.90;;;;;;5070364;28;20044;-81
2021/10/20 06:10:12;;;;;;;16.58;11.52;;;15.10;99.90;;;;;;5076807;28;20044;-81
2021/10/20 06:12:39;;;;;;;13.80;9.38;;;15.00;99.90;;;;;;5083365;28;20058;-82
2021/10/20 06:15:06;;;;;;;18.85;10.98;;;15.10;99.90;;;;;;5081503;28;20040;-81
2021/10/20 06:17:36;;;;;;;14.77;10.38;;;15.10;99.90;;;;;;5095491;28;20050;-81
2021/10/20 06:20:03;;;;;;;14.52;10.55;;;15.10;99.90;;;;;;5081161;28;20407;-81
2021/10/20 06:22:29;;;;;;;17.50;10.88;;;15.10;99.90;;;;;;5089521;28;20048;-81
2021/10/20 06:24:55;;;;;;;19.63;10.63;;;15.10;99.90;;;;;;5099461;28;20042;-81
2021/10/20 06:27:20;;;;;;;27.42;11.30;;;15.20;99.90;;;;;;5066093;28;20044;-81
2021/10/20 06:29:46;;;;;;;21.33;11.65;;;15.20;99.90;;;;;;5080951;28;20448;-80
2021/10/20 06:32:12;;;;;;;17.30;11.95;;;15.10;99.90;;;;;;5064182;28;20075;-81
2021/10/20 06:34:37;;;;;;;15.02;11.07;;;15.10;99.90;;;;;;5066726;28;20126;-81
2021/10/20 06:37:03;;;;;;;23.33;10.93;;;15.10;99.90;;;;;;5044271;28;20494;-81
2021/10/20 06:39:29;;;;;;;23.20;12.40;;;15.10;99.90;;;;;;5071748;28;20093;-81
2021/10/20 06:41:55;;;;;;;22.52;11.15;;;15.10;99.90;;;;;;5084358;28;20044;-81
2021/10/20 06:44:21;;;;;;;22.55;11.23;;;15.10;99.90;;;;;;5115547;28;20036;-81
2021/10/20 06:46:48;;;;;;;13.32;10.57;;;15.10;99.90;;;;;;5076307;28;20166;-81
2021/10/20 06:49:14;;;;;;;19.35;10.40;;;15.20;99.90;;;;;;5085149;28;20044;-82
2021/10/20 06:51:41;;;;;;;15.52;11.18;;;15.20;99.90;;;;;;5080085;28;20036;-81
2021/10/20 06:54:07;;;;;;;16.73;11.68;;;15.20;99.90;;;;;;5068307;28;20042;-81
2021/10/20 06:56:32;;;;;;;23.67;10.50;;;15.30;99.90;;;;;;5047431;28;20506;-81
2021/10/20 06:58:58;;;;;;;21.42;10.40;;;15.30;99.90;;;;;;5084554;28;20044;-81
2021/10/20 07:01:24;;;;;;;19.52;10.80;;;15.40;99.90;;;;;;5078551;28;20036;-81
2021/10/20 07:03:50;;;;;;;18.45;10.75;;;15.40;99.90;;;;;;5076279;28;20037;-81
2021/10/20 07:06:16;;;;;;;14.80;10.10;;;15.50;99.90;;;;;;5070668;28;20048;-80
2021/10/20 07:08:42;;;;;;;22.33;10.63;;;15.50;99.90;;;;;;5082654;28;20482;-80
2021/10/20 07:11:08;;;;;;;12.10;10.00;;;15.60;99.90;;;;;;5073686;28;20044;-81
2021/10/20 07:13:33;;;;;;;14.27;8.80;;;15.60;99.90;;;;;;5074252;28;20044;-81
2021/10/20 07:15:59;;;;;;;13.25;9.05;;;15.60;99.90;;;;;;5099023;28;20043;-80
2021/10/20 07:18:29;;;;;;;17.58;9.90;;;15.70;99.90;;;;;;5071236;28;20047;-81
2021/10/20 07:20:55;;;;;;;13.85;9.45;;;15.80;99.90;;;;;;5103150;28;20110;-81
2021/10/20 07:23:20;;;;;;;13.88;10.18;;;15.80;99.90;;;;;;5072347;28;20575;-80
2021/10/20 07:25:46;;;;;;;12.38;9.93;;;15.80;99.90;;;;;;5086623;28;20036;-81
2021/10/20 07:28:12;;;;;;;13.43;9.70;;;15.80;99.90;;;;;;5074151;28;20082;-81
2021/10/20 07:30:38;;;;;;;15.98;10.40;;;15.80;99.90;;;;;;5072269;28;20079;-81
2021/10/20 07:33:05;;;;;;;15.98;9.45;;;15.80;99.90;;;;;;5090237;28;20397;-81
2021/10/20 07:35:31;;;;;;;17.33;9.50;;;15.80;99.90;;;;;;5074427;28;20097;-82
2021/10/20 07:37:57;;;;;;;12.70;9.15;;;15.80;99.90;;;;;;5091224;28;20044;-82
2021/10/20 07:40:23;;;;;;;13.27;10.45;;;15.80;99.90;;;;;;5072278;28;20044;-82
2021/10/20 07:42:49;;;;;;;23.08;11.52;;;15.80;99.90;;;;;;5062592;28;20047;-82
2021/10/20 07:45:19;;;;;;;14.80;11.23;;;15.80;99.90;;;;;;5083385;28;20039;-83
2021/10/20 07:47:49;;;;;;;23.60;11.98;;;15.80;99.90;;;;;;5087351;28;20040;-82
2021/10/20 07:50:16;;;;;;;15.90;11.43;;;15.80;99.90;;;;;;5105090;28;20036;-82
2021/10/20 07:52:47;;;;;;;17.38;11.75;;;15.80;99.90;;;;;;5068722;28;20036;-82
2021/10/20 07:55:14;;;;;;;15.90;11.65;;;15.80;99.90;;;;;;5085883;28;20072;-82
2021/10/20 07:57:39;;;;;;;18.73;11.65;;;15.70;99.90;;;;;;5087192;28;20576;-82
2021/10/20 08:00:07;;;;;;;19.17;11.27;;;15.70;99.90;;;;;;5070215;28;20130;-82
2021/10/20 08:02:33;;;;;;;18.45;12.02;;;15.70;99.90;;;;;;5055589;28;20036;-82
2021/10/20 08:04:59;;;;;;;17.83;11.75;;;15.70;99.90;;;;;;5079082;28;20031;-82
2021/10/20 08:07:24;;;;;;;14.77;10.38;;;15.70;99.90;;;;;;5087776;28;20032;-82
2021/10/20 08:09:50;;;;;;;14.88;10.35;;;15.70;99.90;;;;;;5085917;28;20044;-82
2021/10/20 08:12:17;;;;;;;17.38;9.55;;;15.70;99.90;;;;;;5084744;28;20497;-82
2021/10/20 08:14:43;;;;;;;16.15;9.85;;;15.70;99.90;;;;;;5084372;28;20052;-82
2021/10/20 08:17:09;;;;;;;13.18;8.65;;;15.70;99.90;;;;;;5099336;28;20039;-82
2021/10/20 08:19:35;;;;;;;15.68;9.75;;;15.70;99.90;;;;;;5107454;28;20418;-80
2021/10/20 08:22:01;;;;;;;13.75;8.68;;;15.70;99.90;;;;;;5088121;28;20040;-79
2021/10/20 08:24:28;;;;;;;18.42;9.52;;;15.80;99.90;;;;;;5107615;28;20036;-79
2021/10/20 08:26:54;;;;;;;13.10;8.57;;;15.80;99.90;;;;;;5077658;28;20047;-79
2021/10/20 08:29:19;;;;;;;14.30;9.40;;;15.70;99.90;;;;;;5091491;28;20043;-79
2021/10/20 08:31:45;;;;;;;14.07;8.52;;;15.70;99.90;;;;;;5055011;28;20264;-79
2021/10/20 08:34:11;;;;;;;15.27;9.27;;;15.80;99.90;;;;;;5070159;28;20513;-79
2021/10/20 08:36:38;;;;;;;14.50;7.97;;;15.80;99.90;;;;;;5087745;28;20040;-78
2021/10/20 08:39:04;;;;;;;10.25;7.95;;;15.80;99.90;;;;;;5094864;28;20152;-79
2021/10/20 08:41:30;;;;;;;12.98;7.90;;;15.90;99.90;;;;;;5079725;28;20040;-79
2021/10/20 08:43:58;;;;;;;16.45;8.85;;;16.00;99.90;;;;;;5084482;28;20101;-79
2021/10/20 08:46:25;;;;;;;10.68;8.05;;;16.00;99.90;;;;;;5092941;28;20550;-79
2021/10/20 08:48:56;;;;;;;13.73;8.77;;;16.00;99.90;;;;;;5084886;28;20074;-79
2021/10/20 08:51:26;;;;;;;13.55;8.13;;;16.00;99.90;;;;;;5089002;28;20047;-79
2021/10/20 08:53:51;;;;;;;9.80;8.15;;;16.00;99.90;;;;;;5066795;28;20336;-80
2021/10/20 08:56:18;;;;;;;15.88;7.45;;;16.00;99.90;;;;;;5083287;28;20051;-80
2021/10/20 08:58:45;;;;;;;10.02;7.53;;;16.10;99.90;;;;;;5065922;28;20509;-79
2021/10/20 09:01:11;;;;;;;10.70;7.25;;;16.10;99.90;;;;;;5087178;28;20041;-79
2021/10/20 09:03:37;;;;;;;21.63;7.57;;;16.10;99.90;;;;;;5072006;28;20087;-80
2021/10/20 09:06:02;;;;;;;14.90;7.72;;;16.10;99.90;;;;;;5101137;28;20121;-79
2021/10/20 09:08:42;;;;;;;17.15;8.32;;;16.10;99.90;;;;;;5085609;28;20119;-79
2021/10/20 09:11:29;;;;;;;10.10;7.17;;;16.10;99.90;;;;;;5074522;28;20229;-80
2021/10/20 09:14:20;;;;;;;14.25;7.28;;;16.10;99.90;;;;;;5104231;28;20779;-79
2021/10/20 09:16:45;;;;;;;11.18;7.63;;;16.10;99.90;;;;;;5105391;28;20052;-79
2021/10/20 09:19:13;;;;;;;10.77;6.88;;;16.10;99.90;;;;;;5088708;28;20499;-80
2021/10/20 09:21:57;;;;;;;19.25;7.15;;;16.10;99.90;;;;;;5101437;28;20042;-79
2021/10/20 09:24:49;;;;;;;9.93;6.47;;;16.20;99.90;;;;;;5087171;28;20052;-80
2021/10/20 09:27:33;;;;;;;11.60;7.30;;;16.20;99.90;;;;;;5108387;27;20404;-80
2021/10/20 09:30:14;;;;;;;8.43;6.75;;;16.30;99.90;;;;;;5073039;28;20032;-79
2021/10/20 09:32:41;;;;;;;30.42;6.90;;;16.40;99.90;;;;;;5086749;28;20045;-79
2021/10/20 09:35:12;;;;;;;8.55;6.50;;;16.50;99.90;;;;;;5100702;28;20035;-80
2021/10/20 09:37:42;;;;;;;8.10;6.03;;;16.60;99.90;;;;;;5106237;28;20046;-79
2021/10/20 09:40:11;;;;;;;;;;;16.60;99.90;;;;;;5104223;28;20039;-79
2021/10/20 09:42:48;;;;;;;11.05;6.13;;;16.70;99.90;;;;;;5106065;28;19959;-79
2021/10/20 09:45:16;;;;;;;7.35;5.78;;;16.80;99.90;;;;;;5087956;28;20413;-79
2021/10/20 09:47:42;;;;;;;10.43;5.57;;;16.70;99.90;;;;;;5086888;28;20368;-79
2021/10/20 09:50:09;;;;;;;6.90;5.72;;;16.70;99.90;;;;;;5083103;28;20054;-79
2021/10/20 09:52:51;;;;;;;12.02;5.53;;;16.80;99.90;;;;;;5086559;28;20509;-79
2021/10/20 09:55:28;;;;;;;10.82;5.13;;;16.80;99.90;;;;;;5085733;28;20197;-79
2021/10/20 09:58:24;;;;;;;7.22;5.18;;;16.80;99.90;;;;;;5082622;28;20047;-80
2021/10/20 10:00:54;;;;;;;17.17;5.50;;;16.90;99.90;;;;;;5064726;28;20051;-80
2021/10/20 10:03:21;;;;;;;7.45;4.88;;;16.90;99.90;;;;;;5071994;28;20397;-80
2021/10/20 10:05:47;;;;;;;14.70;5.28;;;16.80;99.90;;;;;;5084407;28;20127;-80
2021/10/20 10:08:12;;;;;;;10.82;5.30;;;16.80;99.90;;;;;;5100642;28;20172;-80
2021/10/20 10:10:38;;;;;;;10.32;5.40;;;16.70;99.90;;;;;;5072540;28;20047;-80
2021/10/20 10:13:17;;;;;;;8.80;5.28;;;16.70;99.90;;;;;;5071054;28;20081;-79
2021/10/20 10:15:43;;;;;;;7.90;4.78;;;16.60;99.90;;;;;;5087890;28;20122;-80
2021/10/20 10:18:10;;;;;;;10.57;5.03;;;16.60;99.90;;;;;;5079532;28;20047;-80
2021/10/20 10:20:44;;;;;;;11.00;4.95;;;16.60;99.90;;;;;;5098861;28;20051;-79
2021/10/20 10:23:24;;;;;;;13.40;5.57;;;16.70;99.90;;;;;;5113960;28;20101;-80
2021/10/20 10:26:06;;;;;;;11.52;4.97;;;16.70;99.90;;;;;;5073209;28;20040;-80
2021/10/20 10:28:35;;;;;;;8.63;5.20;;;16.70;99.90;;;;;;5094836;28;20057;-79
2021/10/20 10:31:10;;;;;;;11.93;5.28;;;16.80;99.90;;;;;;5085221;28;20474;-80
2021/10/20 10:33:51;;;;;;;9.25;5.10;;;16.90;99.90;;;;;;5085367;28;20522;-80
2021/10/20 10:36:21;;;;;;;8.35;5.32;;;16.90;99.90;;;;;;5069068;28;20050;-80
2021/10/20 10:39:04;;;;;;;5.47;4.80;;;16.80;99.90;;;;;;5085086;28;20048;-79
2021/10/20 10:41:46;;;;;;;9.35;4.70;;;16.80;99.90;;;;;;5084489;28;20046;-80
2021/10/20 10:44:15;;;;;;;6.82;5.72;;;16.80;99.90;;;;;;5075039;28;20032;-79
2021/10/20 10:47:26;;;;;;;6.72;4.90;;;16.80;99.90;;;;;;5085619;28;20051;-80
2021/10/20 10:49:56;;;;;;;5.40;4.90;;;16.70;99.90;;;;;;5082262;28;20048;-79
2021/10/20 10:52:28;;;;;;;6.50;5.55;;;16.80;99.90;;;;;;5071200;28;20073;-80
2021/10/20 10:54:59;;;;;;;5.82;4.55;;;16.70;99.90;;;;;;5089027;28;20177;-80
2021/10/20 10:57:55;;;;;;;6.97;4.85;;;16.70;99.90;;;;;;5086526;28;20039;-80
2021/10/20 11:00:20;;;;;;;5.43;4.53;;;16.70;99.90;;;;;;5070806;28;20036;-80
2021/10/20 11:02:51;;;;;;;6.95;4.70;;;16.70;99.90;;;;;;5093962;28;20048;-80
2021/10/20 11:05:20;;;;;;;9.52;4.70;;;16.70;99.90;;;;;;5088080;28;20440;-80
2021/10/20 11:07:47;;;;;;;11.43;5.20;;;16.70;99.90;;;;;;5067701;28;20071;-80
2021/10/20 11:10:15;;;;;;;6.10;4.72;;;16.80;99.90;;;;;;5068204;28;20044;-80
2021/10/20 11:12:44;;;;;;;11.77;5.50;;;16.80;99.90;;;;;;5106938;28;20063;-80
2021/10/20 11:15:11;;;;;;;4.75;4.25;;;16.80;99.90;;;;;;5077929;28;20032;-79
2021/10/20 11:17:37;;;;;;;8.73;5.03;;;16.80;99.90;;;;;;5104040;27;20039;-80
2021/10/20 11:20:11;;;;;;;11.10;5.47;;;16.80;99.90;;;;;;5089822;28;20512;-80
2021/10/20 11:22:37;;;;;;;13.30;5.43;;;16.80;99.90;;;;;;5108218;28;20039;-79
2021/10/20 11:25:08;;;;;;;13.25;5.40;;;16.80;99.90;;;;;;5091198;28;20039;-80
2021/10/20 11:27:37;;;;;;;10.15;5.47;;;16.70;99.90;;;;;;5092578;28;20046;-80
2021/10/20 11:30:04;;;;;;;7.07;5.07;;;16.70;99.90;;;;;;5108390;28;20054;-80
2021/10/20 11:32:29;;;;;;;17.92;6.05;;;16.50;99.90;;;;;;5090275;28;20572;-80
2021/10/20 11:34:55;;;;;;;14.52;5.78;;;16.40;99.90;;;;;;5091349;28;20568;-80
2021/10/20 11:37:23;;;;;;;8.63;5.60;;;16.20;99.90;;;;;;5072992;28;20067;-80
2021/10/20 11:39:56;;;;;;;8.45;5.50;;;16.10;99.90;;;;;;5108356;28;20035;-80
2021/10/20 11:42:24;;;;;;;8.15;6.18;;;16.00;99.90;;;;;;5108393;28;20413;-79
2021/10/20 11:44:50;;;;;;;7.38;5.60;;;15.90;99.90;;;;;;5075513;28;22010;-80
2021/10/20 11:47:18;;;;;;;7.65;5.53;;;15.80;99.90;;;;;;5090876;28;20066;-80
2021/10/20 11:49:46;;;;;;;8.70;6.13;;;15.80;99.90;;;;;;5070253;28;20146;-80
2021/10/20 11:52:13;;;;;;;8.50;5.18;;;15.70;99.90;;;;;;5090562;28;20565;-80
2021/10/20 11:54:39;;;;;;;7.32;5.97;;;15.70;99.90;;;;;;5090182;28;20132;-79
2021/10/20 11:57:08;;;;;;;6.50;5.40;;;15.70;99.90;;;;;;5106887;28;20070;-79
2021/10/20 11:59:34;;;;;;;9.15;6.28;;;15.70;99.90;;;;;;5108350;27;20054;-79
2021/10/20 12:02:01;;;;;;;8.45;6.07;;;15.70;99.90;;;;;;5088629;28;20046;-80
2021/10/20 12:04:27;;;;;;;9.15;6.50;;;15.70;99.90;;;;;;5101377;28;20047;-80
2021/10/20 12:06:58;;;;;;;8.63;5.75;;;15.70;99.90;;;;;;5089189;28;20054;-79
2021/10/20 12:09:25;;;;;;;8.95;5.60;;;15.70;99.90;;;;;;5084887;28;20036;-79
2021/10/20 12:11:52;;;;;;;9.43;6.10;;;15.80;99.90;;;;;;5080472;28;20055;-80
2021/10/20 12:14:19;;;;;;;15.35;6.05;;;15.80;99.90;;;;;;5100304;28;20047;-79
2021/10/20 12:16:47;;;;;;;9.95;6.10;;;15.90;99.90;;;;;;5088755;28;20040;-79
2021/10/20 12:19:15;;;;;;;9.18;5.40;;;16.00;99.90;;;;;;5070310;28;20492;-79
2021/10/20 12:21:43;;;;;;;10.55;5.05;;;16.10;99.90;;;;;;5106294;28;20075;-80
2021/10/20 12:24:15;;;;;;;10.25;5.93;;;16.10;99.90;;;;;;5105233;28;20043;-80
2021/10/20 12:26:42;;;;;;;12.85;4.88;;;16.20;99.90;;;;;;5106568;28;20558;-80
2021/10/20 12:29:09;;;;;;;9.57;5.40;;;16.20;99.90;;;;;;5074452;28;20378;-80
2021/10/20 12:31:36;;;;;;;14.65;5.15;;;16.30;99.90;;;;;;5093266;27;20079;-79
2021/10/20 12:34:03;;;;;;;12.55;4.72;;;16.40;99.90;;;;;;5066982;28;20490;-80
2021/10/20 12:36:31;;;;;;;11.35;4.05;;;16.40;99.90;;;;;;5097139;28;20043;-80
2021/10/20 12:38:58;;;;;;;26.08;5.07;;;16.50;99.90;;;;;;5088216;28;20485;-78
2021/10/20 12:41:29;;;;;;;9.00;4.40;;;16.60;99.90;;;;;;5084073;28;20611;-80